createdAt,value
2023-06-19T00:02:14.939Z,100950.16
2023-06-19T00:04:41.578Z,100936.56
2023-06-19T00:07:08.218Z,100944.72
2023-06-19T00:09:34.899Z,100952.44
2023-06-19T00:12:02.628Z,100952.84
2023-06-19T00:14:29.351Z,100947.44
2023-06-19T00:16:56.120Z,100950.16
2023-06-19T00:19:23.839Z,100953.59
2023-06-19T00:21:50.533Z,100947.38
2023-06-19T00:24:17.280Z,100948.53
2023-06-19T00:26:44.646Z,100933.34
2023-06-19T00:29:11.212Z,100943.03
2023-06-19T00:31:38.451Z,100942.25
2023-06-19T00:34:05.123Z,100941.84
2023-06-19T00:36:31.772Z,100942.97
2023-06-19T00:38:58.411Z,100951.47
2023-06-19T00:41:27.429Z,100954.53
2023-06-19T00:43:55.300Z,100959.56
2023-06-19T00:46:22.211Z,100956.44
2023-06-19T00:48:49.349Z,100963.38
2023-06-19T00:51:16.030Z,100970.69
2023-06-19T00:53:43.115Z,100973.75
2023-06-19T00:56:09.944Z,100967.16
2023-06-19T00:58:37.024Z,100964.03
2023-06-19T01:01:08.622Z,100967.03
2023-06-19T01:03:37.697Z,100973.53
2023-06-19T01:06:10.802Z,100970.41
2023-06-19T01:08:51.214Z,100969.22
2023-06-19T01:11:26.589Z,100975.75
2023-06-19T01:14:02.545Z,100986.53
2023-06-19T01:16:31.072Z,100987.28
2023-06-19T01:18:59.246Z,100985.66
2023-06-19T01:21:25.983Z,100980.50
2023-06-19T01:23:52.701Z,100992.38
2023-06-19T01:26:19.753Z,100994.25
2023-06-19T01:28:47.468Z,101003.13
2023-06-19T01:31:23.747Z,101002.69
2023-06-19T01:33:53.475Z,101006.13
2023-06-19T01:36:21.748Z,100997.16
2023-06-19T01:38:49.881Z,101000.59
2023-06-19T01:41:18.525Z,101003.25
2023-06-19T01:43:46.756Z,101006.63
2023-06-19T01:46:13.353Z,101014.25
2023-06-19T01:48:40.960Z,101010.69
2023-06-19T01:51:09.030Z,101003.56
2023-06-19T01:53:36.108Z,101014.72
2023-06-19T01:56:03.096Z,101008.81
2023-06-19T01:58:29.744Z,101011.06
2023-06-19T02:00:56.423Z,101016.81
2023-06-19T02:03:23.524Z,101018.75
2023-06-19T02:05:50.221Z,101024.88
2023-06-19T02:08:16.792Z,101020.53
2023-06-19T02:10:43.607Z,101031.28
2023-06-19T02:13:10.503Z,101026.94
2023-06-19T02:18:31.365Z,101014.13
2023-06-19T02:20:57.949Z,101025.31
2023-06-19T02:23:24.826Z,101031.88
2023-06-19T02:25:51.609Z,101036.06
2023-06-19T02:28:18.404Z,101029.09
2023-06-19T02:30:45.069Z,101037.94
2023-06-19T02:33:11.709Z,101037.94
2023-06-19T02:35:38.481Z,101036.72
2023-06-19T02:38:05.809Z,101032.81
2023-06-19T02:40:32.518Z,101044.41
2023-06-19T02:42:59.267Z,101038.56
2023-06-19T02:45:26.269Z,101038.50
2023-06-19T02:47:53.617Z,101036.94
2023-06-19T02:50:20.392Z,101041.13
2023-06-19T02:52:47.098Z,101060.44
2023-06-19T02:55:13.878Z,101055.38
2023-06-19T02:57:40.658Z,101056.88
2023-06-19T03:00:09.176Z,101055.38
2023-06-19T03:02:36.100Z,101060.88
2023-06-19T03:05:03.930Z,101062.00
2023-06-19T03:07:30.494Z,101062.34
2023-06-19T03:09:57.116Z,101062.75
2023-06-19T03:12:23.791Z,101056.91
2023-06-19T03:14:50.673Z,101055.72
2023-06-19T03:17:17.492Z,101060.69
2023-06-19T03:19:44.397Z,101057.22
2023-06-19T03:22:11.014Z,101057.22
2023-06-19T03:24:37.650Z,101058.34
2023-06-19T03:27:04.676Z,101062.97
2023-06-19T03:29:31.369Z,101060.97
2023-06-19T03:31:57.925Z,101072.91
2023-06-19T03:34:24.514Z,101079.03
2023-06-19T03:36:51.272Z,101075.91
2023-06-19T03:39:17.820Z,101077.44
2023-06-19T03:41:44.433Z,101080.59
2023-06-19T03:44:11.012Z,101078.66
2023-06-19T03:46:37.769Z,101094.47
2023-06-19T03:49:05.902Z,101097.53
2023-06-19T03:51:32.601Z,101106.34
2023-06-19T03:53:59.239Z,101097.78
2023-06-19T03:56:26.126Z,101101.31
2023-06-19T03:58:52.966Z,101105.91
2023-06-19T04:01:19.728Z,101118.31
2023-06-19T04:03:49.415Z,101120.22
2023-06-19T04:06:16.204Z,101113.59
2023-06-19T04:08:43.099Z,101115.16
2023-06-19T04:11:09.690Z,101128.25
2023-06-19T04:13:36.605Z,101112.38
2023-06-19T04:16:03.732Z,101131.59
2023-06-19T04:18:30.481Z,101127.66
2023-06-19T04:20:57.369Z,101120.16
2023-06-19T04:23:24.144Z,101122.88
2023-06-19T04:25:50.776Z,101130.88
2023-06-19T04:28:17.519Z,101137.44
2023-06-19T04:30:44.293Z,101145.97
2023-06-19T04:33:11.014Z,101151.38
2023-06-19T04:35:43.457Z,101149.81
2023-06-19T04:38:11.151Z,101157.91
2023-06-19T04:40:38.014Z,101161.44
2023-06-19T04:43:06.758Z,101161.44
2023-06-19T04:45:33.456Z,101169.09
2023-06-19T04:48:04.749Z,101159.75
2023-06-19T04:50:31.717Z,101165.88
2023-06-19T04:52:58.316Z,101169.34
2023-06-19T04:55:26.754Z,101176.34
2023-06-19T04:57:53.969Z,101178.94
2023-06-19T05:00:20.943Z,101177.72
2023-06-19T05:02:48.574Z,101173.00
2023-06-19T05:05:15.596Z,101177.28
2023-06-19T05:07:42.523Z,101178.06
2023-06-19T05:10:14.989Z,101180.00
2023-06-19T05:12:41.729Z,101190.47
2023-06-19T05:15:09.048Z,101195.06
2023-06-19T05:17:36.041Z,101186.63
2023-06-19T05:20:02.830Z,101195.59
2023-06-19T05:22:29.805Z,101197.53
2023-06-19T05:24:56.490Z,101200.56
2023-06-19T05:27:23.128Z,101206.75
2023-06-19T05:29:49.701Z,101211.28
2023-06-19T05:32:16.548Z,101209.28
2023-06-19T05:34:43.424Z,101212.78
2023-06-19T05:37:10.144Z,101205.88
2023-06-19T05:39:36.808Z,101208.25
2023-06-19T05:42:03.561Z,101207.91
2023-06-19T05:44:30.378Z,101216.78
2023-06-19T05:46:57.234Z,101230.66
2023-06-19T05:49:24.440Z,101224.47
2023-06-19T05:51:51.069Z,101227.94
2023-06-19T05:54:21.112Z,101234.84
2023-06-19T05:56:51.042Z,101230.56
2023-06-19T05:59:17.954Z,101229.00
2023-06-19T06:01:45.491Z,101230.13
2023-06-19T06:04:12.383Z,101237.88
2023-06-19T06:06:41.676Z,101240.25
2023-06-19T06:09:12.269Z,101244.75
2023-06-19T06:11:38.942Z,101245.72
2023-06-19T06:14:05.742Z,101245.16
2023-06-19T06:16:32.785Z,101251.28
2023-06-19T06:19:00.041Z,101258.16
2023-06-19T06:21:26.914Z,101258.59
2023-06-19T06:23:54.379Z,101261.31
2023-06-19T06:26:21.193Z,101266.34
2023-06-19T06:28:47.848Z,101280.41
2023-06-19T06:31:14.444Z,101272.94
2023-06-19T06:33:41.558Z,101279.31
2023-06-19T06:36:08.985Z,101284.19
2023-06-19T06:38:35.825Z,101287.19
2023-06-19T06:41:03.172Z,101279.53
2023-06-19T06:43:30.041Z,101292.81
2023-06-19T06:46:01.781Z,101284.06
2023-06-19T06:48:31.115Z,101291.66
2023-06-19T06:51:00.383Z,101294.63
2023-06-19T06:53:27.195Z,101305.81
2023-06-19T06:55:53.895Z,101305.53
2023-06-19T06:58:20.551Z,101309.41
2023-06-19T07:00:55.133Z,101316.59
2023-06-19T07:03:22.130Z,101312.06
2023-06-19T07:05:49.523Z,101314.56
2023-06-19T07:08:16.379Z,101326.44
2023-06-19T07:10:43.278Z,101321.91
2023-06-19T07:13:10.763Z,101327.41
2023-06-19T07:15:37.436Z,101334.47
2023-06-19T07:18:04.460Z,101333.91
2023-06-19T07:20:31.188Z,101348.75
2023-06-19T07:22:58.204Z,101342.81
2023-06-19T07:25:26.712Z,101345.66
2023-06-19T07:27:53.924Z,101346.63
2023-06-19T07:30:21.958Z,101352.13
2023-06-19T07:32:49.562Z,101355.69
2023-06-19T07:35:16.774Z,101353.31
2023-06-19T07:37:43.985Z,101356.81
2023-06-19T07:40:11.577Z,101365.78
2023-06-19T07:42:38.382Z,101364.59
2023-06-19T07:45:05.825Z,101357.59
2023-06-19T07:47:33.049Z,101354.59
2023-06-19T07:49:59.739Z,101368.44
2023-06-19T07:52:27.814Z,101376.28
2023-06-19T07:54:56.760Z,101382.22
2023-06-19T07:57:25.358Z,101385.88
2023-06-19T07:59:53.999Z,101393.16
2023-06-19T08:02:21.035Z,101376.78
2023-06-19T08:04:48.278Z,101388.03
2023-06-19T08:07:15.293Z,101385.59
2023-06-19T08:09:42.598Z,101399.97
2023-06-19T08:12:12.255Z,101403.53
2023-06-19T08:14:39.754Z,101390.53
2023-06-19T08:17:07.104Z,101393.06
2023-06-19T08:19:44.490Z,101393.59
2023-06-19T08:22:11.409Z,101394.75
2023-06-19T08:25:00.087Z,101407.31
2023-06-19T08:27:27.214Z,101394.09
2023-06-19T08:29:53.993Z,101397.84
2023-06-19T08:32:27.079Z,101402.19
2023-06-19T08:34:53.972Z,101412.69
2023-06-19T08:37:20.757Z,101417.34
2023-06-19T08:39:48.733Z,101416.94
2023-06-19T08:42:19.267Z,101427.97
2023-06-19T08:44:46.286Z,101417.16
2023-06-19T08:47:14.370Z,101428.97
2023-06-19T08:49:41.384Z,101430.16
2023-06-19T08:52:11.198Z,101444.22
2023-06-19T08:54:49.445Z,101431.13
2023-06-19T08:57:16.318Z,101434.94
2023-06-19T08:59:51.251Z,101447.09
2023-06-19T09:02:18.317Z,101448.97
2023-06-19T09:04:45.093Z,101449.03
2023-06-19T09:07:14.334Z,101442.84
2023-06-19T09:09:47.444Z,101448.91
2023-06-19T09:12:15.495Z,101433.44
2023-06-19T09:14:44.881Z,101448.16
2023-06-19T09:17:14.823Z,101451.63
2023-06-19T09:19:49.636Z,101443.63
2023-06-19T09:22:20.297Z,101454.91
2023-06-19T09:24:47.281Z,101452.19
2023-06-19T09:27:17.120Z,101459.47
2023-06-19T09:29:45.592Z,101463.44
2023-06-19T09:32:29.694Z,101467.66
2023-06-19T09:34:59.913Z,101466.00
2023-06-19T09:37:31.418Z,101474.63
2023-06-19T09:40:11.226Z,101480.88
2023-06-19T09:42:48.313Z,101477.84
2023-06-19T09:45:20.191Z,101477.34
2023-06-19T09:47:50.549Z,101488.31
2023-06-19T09:50:19.192Z,101490.34
2023-06-19T09:52:46.589Z,101488.94
2023-06-19T09:55:17.135Z,101508.75
2023-06-19T09:57:46.475Z,101499.19
2023-06-19T10:00:23.310Z,101496.19
2023-06-19T10:02:55.016Z,101496.50
2023-06-19T10:05:45.303Z,101511.34
2023-06-19T10:08:32.029Z,101511.34
2023-06-19T10:11:04.863Z,101504.31
2023-06-19T10:13:44.262Z,101498.22
2023-06-19T10:16:30.195Z,101501.47
2023-06-19T10:18:58.638Z,101491.72
2023-06-19T10:21:25.996Z,101495.00
2023-06-19T10:23:58.745Z,101488.31
2023-06-19T10:26:34.819Z,101500.03
2023-06-19T10:29:10.850Z,101491.44
2023-06-19T10:31:44.279Z,101501.63
2023-06-19T10:34:13.561Z,101491.94
2023-06-19T10:36:40.486Z,101499.44
2023-06-19T10:39:08.685Z,101497.63
2023-06-19T10:41:46.205Z,101495.72
2023-06-19T10:44:17.927Z,101497.25
2023-06-19T10:46:46.105Z,101497.69
2023-06-19T10:49:18.254Z,101499.69
2023-06-19T10:51:49.432Z,101500.09
2023-06-19T10:54:17.409Z,101490.06
2023-06-19T10:56:45.964Z,101492.38
2023-06-19T10:59:13.583Z,101484.59
2023-06-19T11:01:43.567Z,101492.03
2023-06-19T11:04:12.274Z,101485.84
2023-06-19T11:06:45.318Z,101492.53
2023-06-19T11:09:19.522Z,101494.50
2023-06-19T11:11:48.149Z,101485.16
2023-06-19T11:14:18.719Z,101491.81
2023-06-19T11:16:49.087Z,101504.69
2023-06-19T11:19:25.322Z,101495.44
2023-06-19T11:21:53.345Z,101486.06
2023-06-19T11:24:29.122Z,101492.31
2023-06-19T11:26:59.975Z,101491.97
2023-06-19T11:29:30.375Z,101496.59
2023-06-19T11:32:09.921Z,101496.25
2023-06-19T11:34:38.036Z,101496.28
2023-06-19T11:37:22.113Z,101492.38
2023-06-19T11:39:50.829Z,101497.53
2023-06-19T11:42:20.979Z,101495.56
2023-06-19T11:44:56.543Z,101496.72
2023-06-19T11:47:23.931Z,101494.81
2023-06-19T11:49:53.195Z,101505.34
2023-06-19T11:52:20.283Z,101498.78
2023-06-19T11:54:46.969Z,101503.09
2023-06-19T11:57:14.137Z,101503.09
2023-06-19T11:59:41.999Z,101501.53
2023-06-19T12:02:10.034Z,101507.75
2023-06-19T12:04:37.889Z,101503.09
2023-06-19T12:07:05.476Z,101500.69
2023-06-19T12:09:33.377Z,101501.09
2023-06-19T12:12:00.976Z,101506.22
2023-06-19T12:14:27.971Z,101501.59
2023-06-19T12:16:54.898Z,101490.34
2023-06-19T12:19:21.654Z,101501.28
2023-06-19T12:21:48.307Z,101496.22
2023-06-19T12:24:15.175Z,101498.13
2023-06-19T12:26:41.928Z,101502.06
2023-06-19T12:29:09.745Z,101500.09
2023-06-19T12:31:42.454Z,101508.25
2023-06-19T12:34:28.945Z,101496.16
2023-06-19T12:36:58.638Z,101496.97
2023-06-19T12:39:26.205Z,101499.31
2023-06-19T12:41:53.734Z,101499.72
2023-06-19T12:44:26.125Z,101509.50
2023-06-19T12:46:54.314Z,101513.44
2023-06-19T12:49:22.468Z,101511.09
2023-06-19T12:51:52.835Z,101505.69
2023-06-19T12:54:20.231Z,101510.38
2023-06-19T12:56:47.011Z,101502.16
2023-06-19T12:59:13.953Z,101502.53
2023-06-19T13:01:40.972Z,101498.63
2023-06-19T13:04:07.829Z,101504.13
2023-06-19T13:06:35.918Z,101500.19
2023-06-19T13:09:06.298Z,101501.38
2023-06-19T13:11:35.444Z,101498.63
2023-06-19T13:14:04.940Z,101499.81
2023-06-19T13:16:45.623Z,101499.44
2023-06-19T13:19:17.678Z,101497.88
2023-06-19T13:21:47.523Z,101496.31
2023-06-19T13:24:14.539Z,101489.28
2023-06-19T13:26:45.421Z,101488.13
2023-06-19T13:29:15.631Z,101494.34
2023-06-19T13:31:42.527Z,101479.13
2023-06-19T13:34:09.450Z,101494.34
2023-06-19T13:36:36.216Z,101497.47
2023-06-19T13:39:04.216Z,101486.91
2023-06-19T13:41:34.210Z,101488.88
2023-06-19T13:44:01.945Z,101499.78
2023-06-19T13:46:29.876Z,101491.59
2023-06-19T13:48:56.590Z,101490.06
2023-06-19T13:51:24.050Z,101475.59
2023-06-19T13:53:52.764Z,101482.63
2023-06-19T13:56:19.667Z,101485.38
2023-06-19T13:58:47.577Z,101477.94
2023-06-19T14:01:17.153Z,101481.06
2023-06-19T14:03:44.609Z,101483.00
2023-06-19T14:06:11.870Z,101477.91
2023-06-19T14:08:48.423Z,101477.94
2023-06-19T14:11:15.282Z,101470.47
2023-06-19T14:13:42.050Z,101455.22
2023-06-19T14:16:08.974Z,101471.66
2023-06-19T14:18:38.138Z,101461.13
2023-06-19T14:21:06.419Z,101471.28
2023-06-19T14:23:35.368Z,101464.63
2023-06-19T14:26:05.581Z,101465.78
2023-06-19T14:28:36.224Z,101470.81
2023-06-19T14:31:02.994Z,101472.31
2023-06-19T14:33:29.694Z,101470.81
2023-06-19T14:36:02.840Z,101464.56
2023-06-19T14:38:33.080Z,101464.56
2023-06-19T14:41:04.290Z,101463.81
2023-06-19T14:43:33.510Z,101457.97
2023-06-19T14:46:00.870Z,101466.16
2023-06-19T14:48:28.259Z,101459.50
2023-06-19T14:50:54.908Z,101462.63
2023-06-19T14:53:21.636Z,101470.44
2023-06-19T14:55:48.822Z,101466.88
2023-06-19T14:58:17.006Z,101464.53
2023-06-19T15:00:43.979Z,101457.09
2023-06-19T15:03:11.260Z,101466.44
2023-06-19T15:05:38.081Z,101464.47
2023-06-19T15:08:07.117Z,101453.16
2023-06-19T15:10:34.023Z,101448.81
2023-06-19T15:13:05.018Z,101445.69
2023-06-19T15:15:32.016Z,101448.81
2023-06-19T15:17:58.977Z,101440.97
2023-06-19T15:20:25.941Z,101446.78
2023-06-19T15:22:55.850Z,101441.63
2023-06-19T15:25:24.980Z,101436.16
2023-06-19T15:27:54.066Z,101443.63
2023-06-19T15:30:20.830Z,101449.84
2023-06-19T15:32:48.497Z,101445.97
2023-06-19T15:35:15.379Z,101447.50
2023-06-19T15:37:42.512Z,101452.22
2023-06-19T15:40:09.742Z,101451.91
2023-06-19T15:42:38.265Z,101451.53
2023-06-19T15:45:05.835Z,101443.34
2023-06-19T15:47:35.453Z,101439.81
2023-06-19T15:50:06.068Z,101435.41
2023-06-19T15:52:35.220Z,101439.34
2023-06-19T15:55:02.083Z,101438.16
2023-06-19T15:57:28.842Z,101439.66
2023-06-19T15:59:55.456Z,101441.63
2023-06-19T16:02:22.141Z,101429.47
2023-06-19T16:04:49.353Z,101434.53
2023-06-19T16:07:16.119Z,101440.00
2023-06-19T16:09:54.444Z,101438.41
2023-06-19T16:12:22.251Z,101431.44
2023-06-19T16:14:48.935Z,101431.91
2023-06-19T16:17:16.771Z,101432.66
2023-06-19T16:19:43.928Z,101433.50
2023-06-19T16:22:12.461Z,101435.88
2023-06-19T16:24:41.025Z,101424.91
2023-06-19T16:27:08.359Z,101424.44
2023-06-19T16:29:34.987Z,101424.75
2023-06-19T16:32:09.520Z,101429.84
2023-06-19T16:34:37.236Z,101422.88
2023-06-19T16:37:04.405Z,101429.94
2023-06-19T16:39:31.078Z,101427.59
2023-06-19T16:41:57.762Z,101437.34
2023-06-19T16:44:24.445Z,101432.31
2023-06-19T16:46:51.249Z,101445.25
2023-06-19T16:49:18.757Z,101436.66
2023-06-19T16:51:45.948Z,101438.53
2023-06-19T16:54:12.780Z,101435.38
2023-06-19T16:56:39.547Z,101432.97
2023-06-19T16:59:11.430Z,101432.97
2023-06-19T17:01:38.339Z,101434.94
2023-06-19T17:04:06.984Z,101434.94
2023-06-19T17:06:33.770Z,101433.34
2023-06-19T17:09:00.780Z,101438.44
2023-06-19T17:11:28.147Z,101434.53
2023-06-19T17:13:55.036Z,101430.59
2023-06-19T17:16:22.205Z,101420.78
2023-06-19T17:18:49.283Z,101423.50
2023-06-19T17:21:16.087Z,101423.88
2023-06-19T17:23:43.054Z,101430.13
2023-06-19T17:26:09.788Z,101436.34
2023-06-19T17:28:36.400Z,101426.53
2023-06-19T17:31:08.168Z,101422.97
2023-06-19T17:33:35.458Z,101422.94
2023-06-19T17:36:04.062Z,101415.03
2023-06-19T17:38:30.747Z,101410.63
2023-06-19T17:40:57.622Z,101411.78
2023-06-19T17:43:24.228Z,101413.00
2023-06-19T17:45:51.407Z,101410.00
2023-06-19T17:48:18.148Z,101410.84
2023-06-19T17:50:47.012Z,101417.53
2023-06-19T17:53:13.699Z,101415.16
2023-06-19T17:55:43.486Z,101419.56
2023-06-19T17:58:10.553Z,101424.75
2023-06-19T18:00:37.242Z,101424.91
2023-06-19T18:03:05.661Z,101423.75
2023-06-19T18:05:32.388Z,101429.28
2023-06-19T18:07:59.138Z,101415.72
2023-06-19T18:10:26.106Z,101416.59
2023-06-19T18:12:52.905Z,101417.75
2023-06-19T18:15:19.580Z,101418.13
2023-06-19T18:17:49.169Z,101427.09
2023-06-19T18:20:16.186Z,101418.88
2023-06-19T18:22:44.520Z,101422.81
2023-06-19T18:25:11.457Z,101424.00
2023-06-19T18:27:40.251Z,101426.75
2023-06-19T18:30:08.767Z,101444.38
2023-06-19T18:32:35.532Z,101434.19
2023-06-19T18:35:02.719Z,101438.09
2023-06-19T18:37:29.413Z,101448.63
2023-06-19T18:39:56.180Z,101449.78
2023-06-19T18:42:24.737Z,101438.84
2023-06-19T18:44:51.778Z,101442.34
2023-06-19T18:47:18.464Z,101446.97
2023-06-19T18:49:45.418Z,101445.38
2023-06-19T18:52:12.489Z,101448.03
2023-06-19T18:54:39.234Z,101442.97
2023-06-19T18:57:06.378Z,101444.16
2023-06-19T18:59:35.207Z,101442.97
2023-06-19T19:02:02.538Z,101447.22
2023-06-19T19:04:29.583Z,101448.34
2023-06-19T19:06:56.189Z,101451.06
2023-06-19T19:09:23.287Z,101453.63
2023-06-19T19:11:51.166Z,101462.94
2023-06-19T19:14:17.943Z,101447.22
2023-06-19T19:16:44.990Z,101454.28
2023-06-19T19:19:11.638Z,101451.56
2023-06-19T19:21:39.269Z,101455.69
2023-06-19T19:24:05.951Z,101454.56
2023-06-19T19:26:35.907Z,101453.03
2023-06-19T19:29:02.638Z,101456.84
2023-06-19T19:31:29.220Z,101463.38
2023-06-19T19:33:55.800Z,101462.56
2023-06-19T19:36:22.519Z,101466.00
2023-06-19T19:38:49.446Z,101469.84
2023-06-19T19:41:16.280Z,101469.34
2023-06-19T19:43:43.259Z,101470.03
2023-06-19T19:46:09.960Z,101470.13
2023-06-19T19:48:53.398Z,101478.28
2023-06-19T19:51:32.434Z,101472.03
2023-06-19T19:54:14.263Z,101472.78
2023-06-19T19:56:48.957Z,101480.91
2023-06-19T19:59:15.853Z,101479.72
2023-06-19T20:01:42.593Z,101480.13
2023-06-19T20:04:17.654Z,101484.41
2023-06-19T20:06:47.138Z,101489.44
2023-06-19T20:09:26.974Z,101493.69
2023-06-19T20:12:19.874Z,101492.09
2023-06-19T20:15:01.894Z,101484.22
2023-06-19T20:17:29.015Z,101493.84
2023-06-19T20:19:55.822Z,101501.13
2023-06-19T20:22:22.520Z,101502.53
2023-06-19T20:25:01.574Z,101503.91
2023-06-19T20:27:28.256Z,101506.13
2023-06-19T20:30:10.757Z,101503.59
2023-06-19T20:32:43.654Z,101508.06
2023-06-19T20:35:33.419Z,101499.09
2023-06-19T20:38:00.256Z,101501.59
2023-06-19T20:40:51.693Z,101497.63
2023-06-19T20:43:32.498Z,101501.09
2023-06-19T20:46:04.165Z,101499.81
2023-06-19T20:48:31.173Z,101495.78
2023-06-19T20:50:58.745Z,101496.47
2023-06-19T20:53:27.404Z,101500.69
2023-06-19T20:55:54.430Z,101496.38
2023-06-19T20:58:24.320Z,101509.94
2023-06-19T21:00:51.056Z,101520.72
2023-06-19T21:03:20.563Z,101523.81
2023-06-19T21:05:50.762Z,101534.59
2023-06-19T21:08:17.365Z,101529.53
2023-06-19T21:10:44.225Z,101526.75
2023-06-19T21:15:44.449Z,101527.44
2023-06-19T21:18:11.348Z,101523.50
2023-06-19T21:20:37.998Z,101514.13
2023-06-19T21:23:04.622Z,101515.63
2023-06-19T21:25:31.312Z,101513.19
2023-06-19T21:27:59.527Z,101517.41
2023-06-19T21:30:26.674Z,101532.47
2023-06-19T21:32:53.758Z,101520.00
2023-06-19T21:35:20.493Z,101530.00
2023-06-19T21:37:47.047Z,101531.06
2023-06-19T21:40:13.828Z,101522.06
2023-06-19T21:42:41.136Z,101520.06
2023-06-19T21:45:08.643Z,101520.78
2023-06-19T21:47:35.381Z,101527.78
2023-06-19T21:50:02.017Z,101520.72
2023-06-19T21:52:28.621Z,101512.91
2023-06-19T21:54:55.198Z,101503.94
2023-06-19T21:57:21.753Z,101509.34
2023-06-19T21:59:48.344Z,101504.31
2023-06-19T22:02:15.230Z,101505.00
2023-06-19T22:04:41.914Z,101509.66
2023-06-19T22:07:08.715Z,101510.00
2023-06-19T22:09:35.414Z,101501.81
2023-06-19T22:12:02.164Z,101496.31
2023-06-19T22:14:29.026Z,101491.97
2023-06-19T22:16:55.935Z,101492.22
2023-06-19T22:19:24.704Z,101492.22
2023-06-19T22:21:51.476Z,101486.72
2023-06-19T22:24:18.148Z,101484.72
2023-06-19T22:26:44.899Z,101492.00
2023-06-19T22:29:14.120Z,101489.19
2023-06-19T22:31:41.380Z,101483.75
2023-06-19T22:34:08.325Z,101491.84
2023-06-19T22:36:34.929Z,101487.53
2023-06-19T22:39:02.106Z,101488.25
2023-06-19T22:41:28.946Z,101487.47
2023-06-19T22:43:55.680Z,101488.59
2023-06-19T22:46:22.467Z,101483.09
2023-06-19T22:48:51.854Z,101485.81
2023-06-19T22:51:18.668Z,101482.66
2023-06-19T22:53:45.378Z,101479.53
2023-06-19T22:56:12.062Z,101478.75
2023-06-19T22:58:40.999Z,101485.28
2023-06-19T23:01:09.636Z,101471.25
2023-06-19T23:03:43.668Z,101482.44
2023-06-19T23:06:11.697Z,101471.50
2023-06-19T23:08:41.759Z,101468.72
2023-06-19T23:11:09.616Z,101475.28
2023-06-19T23:13:40.172Z,101475.28
2023-06-19T23:16:11.049Z,101474.06
2023-06-19T23:18:38.385Z,101476.00
2023-06-19T23:21:06.472Z,101472.88
2023-06-19T23:23:34.001Z,101468.56
2023-06-19T23:26:01.704Z,101465.41
2023-06-19T23:28:32.615Z,101466.91
2023-06-19T23:31:00.353Z,101468.41
2023-06-19T23:33:27.087Z,101461.41
2023-06-19T23:35:57.757Z,101457.91
2023-06-19T23:38:27.708Z,101472.97
2023-06-19T23:40:55.389Z,101461.69
2023-06-19T23:43:22.123Z,101462.03
2023-06-19T23:45:48.896Z,101462.81
2023-06-19T23:48:18.832Z,101463.53
2023-06-19T23:50:51.282Z,101458.47
2023-06-19T23:53:17.965Z,101466.94
2023-06-19T23:55:44.827Z,101461.84
2023-06-19T23:58:12.009Z,101463.00
